RYR2889 LEBL-LEPA
Flight info
| Callsign | RYR2889 |
|---|---|
| Flight time | 0h 47m |
| Altitude | 19000 |
| Route | LARPA N859 TOLSO |
| Aircraft | B38M/M-SDE1FGHILORVWXY/HB1 |
Departure
| Time | 2026-05-04 16:56 |
|---|---|
| Airport | Josep Tarradellas Barcelona-El Prat Airport (LEBL) |
Arrival
| Time | 2026-05-04 17:44 |
|---|---|
| Airport | Palma de Mallorca Airport (LEPA) |
| Time | Latitude | Longitude | Altitude | Speed | Heading |
|---|---|---|---|---|---|
| 2026-05-04 16:08 | 41.30560 | 2.08489 | 25 ft | 0 kts | 66° |
| 2026-05-04 16:38 | 41.30568 | 2.08513 | 27 ft | 5 kts | 67° |
| 2026-05-04 16:39 | 41.30572 | 2.08562 | 27 ft | 0 kts | 98° |
| 2026-05-04 16:39 | 41.30560 | 2.08634 | 25 ft | 11 kts | 97° |
| 2026-05-04 16:40 | 41.30562 | 2.08725 | 24 ft | 4 kts | 86° |
| 2026-05-04 16:40 | 41.30552 | 2.08751 | 25 ft | 7 kts | 136° |
| 2026-05-04 16:41 | 41.30442 | 2.08845 | 25 ft | 12 kts | 139° |
| 2026-05-04 16:41 | 41.30318 | 2.08695 | 20 ft | 20 kts | 246° |
| 2026-05-04 16:42 | 41.30132 | 2.08154 | 20 ft | 23 kts | 245° |
| 2026-05-04 16:43 | 41.29993 | 2.07742 | 19 ft | 26 kts | 244° |
| 2026-05-04 16:43 | 41.29846 | 2.07316 | 19 ft | 22 kts | 246° |
| 2026-05-04 16:43 | 41.29786 | 2.07125 | 19 ft | 23 kts | 246° |
| 2026-05-04 16:44 | 41.29505 | 2.06310 | 21 ft | 22 kts | 245° |
| 2026-05-04 16:45 | 41.29346 | 2.06126 | 18 ft | 14 kts | 173° |
| 2026-05-04 16:46 | 41.29297 | 2.06150 | 19 ft | 0 kts | 156° |
| 2026-05-04 16:46 | 41.29208 | 2.06201 | 18 ft | 15 kts | 155° |
| 2026-05-04 16:47 | 41.29043 | 2.06361 | 20 ft | 12 kts | 111° |
| 2026-05-04 16:47 | 41.29019 | 2.06591 | 21 ft | 13 kts | 67° |
| 2026-05-04 16:48 | 41.29178 | 2.07054 | 21 ft | 21 kts | 65° |
| 2026-05-04 16:48 | 41.29242 | 2.07241 | 19 ft | 23 kts | 65° |
| 2026-05-04 16:49 | 41.29364 | 2.07620 | 18 ft | 23 kts | 66° |
| 2026-05-04 16:49 | 41.29506 | 2.08038 | 18 ft | 27 kts | 66° |
| 2026-05-04 16:50 | 41.29589 | 2.08359 | 20 ft | 16 kts | 65° |
| 2026-05-04 16:50 | 41.29600 | 2.08529 | 20 ft | 8 kts | 147° |
| 2026-05-04 16:51 | 41.29348 | 2.08681 | 22 ft | 29 kts | 155° |
| 2026-05-04 16:51 | 41.29167 | 2.08790 | 18 ft | 21 kts | 156° |
| 2026-05-04 16:51 | 41.28956 | 2.08939 | 18 ft | 6 kts | 110° |
| 2026-05-04 16:52 | 41.29038 | 2.09244 | 21 ft | 25 kts | 66° |
| 2026-05-04 16:52 | 41.29114 | 2.09464 | 20 ft | 27 kts | 64° |
| 2026-05-04 16:53 | 41.29261 | 2.09894 | 19 ft | 17 kts | 66° |
| 2026-05-04 16:53 | 41.29265 | 2.10047 | 18 ft | 0 kts | 110° |
| 2026-05-04 16:55 | 41.29238 | 2.10298 | 17 ft | 8 kts | 132° |
| 2026-05-04 16:55 | 41.29215 | 2.10302 | 17 ft | 2 kts | 211° |
| 2026-05-04 16:56 | 41.29025 | 2.09758 | 24 ft | 92 kts | 246° |
| 2026-05-04 16:56 | 41.27792 | 2.06134 | 824 ft | 184 kts | 240° |
| 2026-05-04 16:57 | 41.27071 | 2.04647 | 1562 ft | 189 kts | 234° |
| 2026-05-04 16:57 | 41.24845 | 2.02862 | 2983 ft | 209 kts | 182° |
| 2026-05-04 16:58 | 41.21211 | 2.06319 | 4928 ft | 236 kts | 135° |
| 2026-05-04 16:58 | 41.19886 | 2.07602 | 5456 ft | 245 kts | 164° |
| 2026-05-04 16:59 | 41.16896 | 2.06476 | 7166 ft | 230 kts | 219° |
| 2026-05-04 17:00 | 41.11537 | 2.01590 | 10033 ft | 238 kts | 209° |
| 2026-05-04 17:00 | 41.07041 | 1.98589 | 11989 ft | 253 kts | 200° |
| 2026-05-04 17:01 | 41.03312 | 1.97629 | 12461 ft | 292 kts | 193° |
| 2026-05-04 17:01 | 40.99129 | 1.96613 | 13168 ft | 313 kts | 193° |
| 2026-05-04 17:02 | 40.94770 | 1.96090 | 14270 ft | 325 kts | 173° |
| 2026-05-04 17:02 | 40.90945 | 1.99432 | 15376 ft | 349 kts | 131° |
| 2026-05-04 17:03 | 40.89501 | 2.01977 | 16099 ft | 353 kts | 133° |
| 2026-05-04 17:03 | 40.87980 | 2.04561 | 16712 ft | 359 kts | 133° |
| 2026-05-04 17:03 | 40.84880 | 2.09831 | 18029 ft | 366 kts | 133° |
| 2026-05-04 17:04 | 40.81748 | 2.15150 | 18856 ft | 367 kts | 134° |
| 2026-05-04 17:04 | 40.78621 | 2.20451 | 18899 ft | 365 kts | 134° |
| 2026-05-04 17:05 | 40.74959 | 2.24789 | 18905 ft | 351 kts | 154° |
| 2026-05-04 17:05 | 40.70825 | 2.28225 | 18895 ft | 351 kts | 154° |
| 2026-05-04 17:06 | 40.66668 | 2.31616 | 18891 ft | 352 kts | 154° |
| 2026-05-04 17:06 | 40.64587 | 2.33315 | 18898 ft | 353 kts | 152° |
| 2026-05-04 17:07 | 40.60812 | 2.37560 | 18897 ft | 358 kts | 145° |
| 2026-05-04 17:07 | 40.59539 | 2.38995 | 18899 ft | 357 kts | 145° |
| 2026-05-04 17:07 | 40.57026 | 2.41793 | 18902 ft | 357 kts | 146° |
| 2026-05-04 17:07 | 40.55137 | 2.43878 | 18907 ft | 348 kts | 146° |
| 2026-05-04 17:08 | 40.53311 | 2.45885 | 18797 ft | 338 kts | 146° |
| 2026-05-04 17:08 | 40.49773 | 2.49761 | 18290 ft | 328 kts | 146° |
| 2026-05-04 17:08 | 40.48029 | 2.51668 | 17949 ft | 325 kts | 146° |
| 2026-05-04 17:09 | 40.46304 | 2.53554 | 17663 ft | 320 kts | 146° |
| 2026-05-04 17:09 | 40.44602 | 2.55413 | 17368 ft | 316 kts | 146° |
| 2026-05-04 17:09 | 40.42920 | 2.57249 | 17045 ft | 313 kts | 146° |
| 2026-05-04 17:10 | 40.39610 | 2.60858 | 16416 ft | 307 kts | 146° |
| 2026-05-04 17:10 | 40.34748 | 2.66152 | 15490 ft | 301 kts | 146° |
| 2026-05-04 17:11 | 40.33125 | 2.67916 | 15161 ft | 305 kts | 146° |
| 2026-05-04 17:11 | 40.31480 | 2.69703 | 14850 ft | 308 kts | 146° |
| 2026-05-04 17:11 | 40.28196 | 2.73268 | 14225 ft | 304 kts | 146° |
| 2026-05-04 17:12 | 40.27539 | 2.73981 | 14099 ft | 304 kts | 146° |
| 2026-05-04 17:12 | 40.24287 | 2.77506 | 13436 ft | 300 kts | 146° |
| 2026-05-04 17:13 | 40.19540 | 2.82642 | 12468 ft | 292 kts | 146° |
| 2026-05-04 17:14 | 40.14899 | 2.87655 | 11562 ft | 285 kts | 146° |
| 2026-05-04 17:14 | 40.13376 | 2.89298 | 11263 ft | 283 kts | 146° |
| 2026-05-04 17:14 | 40.10350 | 2.92560 | 10674 ft | 279 kts | 146° |
| 2026-05-04 17:15 | 40.08877 | 2.94146 | 10384 ft | 277 kts | 146° |
| 2026-05-04 17:15 | 40.05926 | 2.97321 | 9890 ft | 270 kts | 146° |
| 2026-05-04 17:16 | 40.03047 | 3.00415 | 9298 ft | 267 kts | 146° |
| 2026-05-04 17:16 | 39.98792 | 3.04982 | 8434 ft | 266 kts | 146° |
| 2026-05-04 17:17 | 39.97347 | 3.06529 | 8129 ft | 271 kts | 146° |
| 2026-05-04 17:17 | 39.93294 | 3.10309 | 7319 ft | 262 kts | 171° |
| 2026-05-04 17:18 | 39.91528 | 3.10358 | 7040 ft | 251 kts | 196° |
| 2026-05-04 17:18 | 39.88306 | 3.08825 | 6953 ft | 247 kts | 204° |
| 2026-05-04 17:19 | 39.85121 | 3.07125 | 6930 ft | 247 kts | 205° |
| 2026-05-04 17:19 | 39.81959 | 3.05387 | 6926 ft | 247 kts | 205° |
| 2026-05-04 17:20 | 39.78759 | 3.03606 | 6272 ft | 253 kts | 205° |
| 2026-05-04 17:20 | 39.75549 | 3.01812 | 5461 ft | 246 kts | 206° |
| 2026-05-04 17:20 | 39.74001 | 3.00948 | 5076 ft | 240 kts | 206° |
| 2026-05-04 17:21 | 39.70952 | 2.99243 | 4337 ft | 242 kts | 206° |
| 2026-05-04 17:21 | 39.67924 | 2.97552 | 3810 ft | 223 kts | 206° |
| 2026-05-04 17:22 | 39.66555 | 2.96789 | 3655 ft | 206 kts | 206° |
| 2026-05-04 17:22 | 39.65319 | 2.96051 | 3524 ft | 184 kts | 216° |
| 2026-05-04 17:23 | 39.63297 | 2.92525 | 2909 ft | 155 kts | 236° |
| 2026-05-04 17:23 | 39.62718 | 2.91342 | 2702 ft | 155 kts | 236° |
| 2026-05-04 17:23 | 39.61616 | 2.89044 | 2314 ft | 144 kts | 238° |
| 2026-05-04 17:24 | 39.61097 | 2.87947 | 2124 ft | 142 kts | 236° |
| 2026-05-04 17:24 | 39.59571 | 2.84715 | 1577 ft | 142 kts | 237° |
| 2026-05-04 17:25 | 39.59072 | 2.83649 | 1396 ft | 130 kts | 236° |
| 2026-05-04 17:25 | 39.58151 | 2.81723 | 1065 ft | 124 kts | 236° |
| 2026-05-04 17:26 | 39.57279 | 2.79856 | 726 ft | 122 kts | 235° |
| 2026-05-04 17:26 | 39.55912 | 2.76934 | 199 ft | 140 kts | 233° |
| 2026-05-04 17:27 | 39.54778 | 2.74900 | 1496 ft | 143 kts | 238° |
| 2026-05-04 17:27 | 39.53632 | 2.72325 | 2530 ft | 188 kts | 239° |
| 2026-05-04 17:28 | 39.52157 | 2.69150 | 2759 ft | 224 kts | 239° |
| 2026-05-04 17:29 | 39.48982 | 2.64493 | 2924 ft | 247 kts | 197° |
| 2026-05-04 17:29 | 39.44077 | 2.66668 | 2980 ft | 260 kts | 152° |
| 2026-05-04 17:30 | 39.40357 | 2.71620 | 3846 ft | 280 kts | 105° |
| 2026-05-04 17:31 | 39.41151 | 2.76533 | 4556 ft | 293 kts | 63° |
| 2026-05-04 17:31 | 39.44087 | 2.83569 | 4984 ft | 297 kts | 62° |
| 2026-05-04 17:32 | 39.46063 | 2.88269 | 4980 ft | 298 kts | 62° |
| 2026-05-04 17:33 | 39.49031 | 2.95337 | 4969 ft | 298 kts | 62° |
| 2026-05-04 17:33 | 39.50015 | 2.97685 | 4981 ft | 297 kts | 62° |
| 2026-05-04 17:34 | 39.53407 | 3.04316 | 4690 ft | 292 kts | 43° |
| 2026-05-04 17:34 | 39.54880 | 3.06123 | 4417 ft | 290 kts | 42° |
| 2026-05-04 17:35 | 39.59562 | 3.10922 | 3569 ft | 284 kts | 30° |
| 2026-05-04 17:35 | 39.62992 | 3.13206 | 3045 ft | 272 kts | 4° |
| 2026-05-04 17:35 | 39.64832 | 3.13004 | 2943 ft | 263 kts | 335° |
| 2026-05-04 17:36 | 39.66329 | 3.11742 | 2962 ft | 252 kts | 307° |
| 2026-05-04 17:36 | 39.67129 | 3.09899 | 2995 ft | 220 kts | 284° |
| 2026-05-04 17:36 | 39.67567 | 3.08112 | 2988 ft | 197 kts | 282° |
| 2026-05-04 17:36 | 39.67968 | 3.06535 | 2971 ft | 173 kts | 282° |
| 2026-05-04 17:37 | 39.68317 | 3.05107 | 2916 ft | 161 kts | 275° |
| 2026-05-04 17:37 | 39.68139 | 3.03739 | 2884 ft | 153 kts | 241° |
| 2026-05-04 17:37 | 39.67662 | 3.02482 | 3011 ft | 156 kts | 242° |
| 2026-05-04 17:37 | 39.67172 | 3.01234 | 3006 ft | 155 kts | 240° |
| 2026-05-04 17:38 | 39.66666 | 3.00022 | 3009 ft | 154 kts | 239° |
| 2026-05-04 17:38 | 39.66128 | 2.98794 | 2994 ft | 156 kts | 239° |
| 2026-05-04 17:38 | 39.65583 | 2.97579 | 2976 ft | 156 kts | 239° |
| 2026-05-04 17:38 | 39.65039 | 2.96387 | 2970 ft | 154 kts | 237° |
| 2026-05-04 17:39 | 39.63947 | 2.94025 | 2962 ft | 152 kts | 238° |
| 2026-05-04 17:39 | 39.63397 | 2.92848 | 2874 ft | 152 kts | 238° |
| 2026-05-04 17:39 | 39.62849 | 2.91679 | 2695 ft | 146 kts | 237° |
| 2026-05-04 17:40 | 39.62329 | 2.90570 | 2526 ft | 142 kts | 237° |
| 2026-05-04 17:40 | 39.61822 | 2.89491 | 2360 ft | 141 kts | 238° |
| 2026-05-04 17:40 | 39.61315 | 2.88415 | 2175 ft | 140 kts | 237° |
| 2026-05-04 17:40 | 39.60810 | 2.87343 | 2024 ft | 138 kts | 236° |
| 2026-05-04 17:41 | 39.60318 | 2.86297 | 1851 ft | 133 kts | 236° |
| 2026-05-04 17:41 | 39.59841 | 2.85287 | 1677 ft | 131 kts | 236° |
| 2026-05-04 17:41 | 39.59369 | 2.84285 | 1459 ft | 130 kts | 237° |
| 2026-05-04 17:41 | 39.58903 | 2.83291 | 1320 ft | 127 kts | 235° |
| 2026-05-04 17:42 | 39.58444 | 2.82329 | 1158 ft | 126 kts | 234° |
| 2026-05-04 17:42 | 39.57991 | 2.81378 | 991 ft | 122 kts | 236° |
| 2026-05-04 17:42 | 39.57547 | 2.80433 | 822 ft | 124 kts | 238° |
| 2026-05-04 17:42 | 39.57090 | 2.79456 | 642 ft | 130 kts | 238° |
| 2026-05-04 17:43 | 39.56612 | 2.78438 | 486 ft | 134 kts | 238° |
| 2026-05-04 17:43 | 39.56129 | 2.77417 | 294 ft | 132 kts | 237° |
| 2026-05-04 17:43 | 39.55641 | 2.76389 | 117 ft | 133 kts | 238° |
| 2026-05-04 17:43 | 39.55191 | 2.75422 | 35 ft | 115 kts | 236° |
| 2026-05-04 17:44 | 39.54865 | 2.74732 | 33 ft | 56 kts | 238° |
| 2026-05-04 17:44 | 39.54677 | 2.74337 | 33 ft | 49 kts | 238° |
| 2026-05-04 17:44 | 39.54556 | 2.73979 | 33 ft | 39 kts | 262° |
| 2026-05-04 17:44 | 39.54551 | 2.73799 | 33 ft | 0 kts | 273° |
| 2026-05-04 17:46 | 39.54552 | 2.73783 | 33 ft | 6 kts | 272° |
| 2026-05-04 17:46 | 39.54551 | 2.73669 | 33 ft | 15 kts | 269° |
| 2026-05-04 17:46 | 39.54509 | 2.73532 | 33 ft | 19 kts | 237° |
| 2026-05-04 17:46 | 39.54439 | 2.73384 | 33 ft | 17 kts | 241° |
| 2026-05-04 17:47 | 39.54395 | 2.73292 | 33 ft | 12 kts | 236° |
| 2026-05-04 17:47 | 39.54403 | 2.73217 | 33 ft | 0 kts | 319° |
| 2026-05-04 17:47 | 39.54414 | 2.73209 | 33 ft | 7 kts | 339° |
| 2026-05-04 17:48 | 39.54449 | 2.73220 | 33 ft | 5 kts | 41° |
| 2026-05-04 17:48 | 39.54488 | 2.73308 | 33 ft | 12 kts | 59° |
| 2026-05-04 17:48 | 39.54500 | 2.73334 | 33 ft | 1 kts | 49° |
| 2026-05-04 17:48 | 39.54508 | 2.73339 | 33 ft | 2 kts | 15° |
| 2026-05-04 17:49 | 39.54530 | 2.73333 | 33 ft | 4 kts | 348° |
| 2026-05-04 17:49 | 39.54547 | 2.73328 | 33 ft | 1 kts | 348° |
| 2026-05-04 17:49 | 39.54556 | 2.73326 | 33 ft | 0 kts | 347° |